Time;durP1;ratioP1;P1;durP2;ratioP2;P2;SDS_P1;SDS_P2;PMS_P1;PMS_P2;Temp;Humidity;BMP_temperature;BMP_pressure;BME280_temperature;BME280_humidity;BME280_pressure;Samples;Min_cycle;Max_cycle;Signal;HPM_P1;HPM_P2
2022/03/06 00:00:14;;;;;;;;;;;;;;;;;;5054695;28;20003;-23
2022/03/06 00:02:40;;;;;;;;;;;;;;;;;;5054778;28;20011;-21
2022/03/06 00:05:06;;;;;;;;;;;;;;;;;;5059235;28;19917;-22
2022/03/06 00:07:32;;;;;;;;;;;;;;;;;;5054580;28;20355;-23
2022/03/06 00:09:58;;;;;;;;;;;;;;;;;;5053647;28;20355;-20
2022/03/06 00:12:24;;;;;;;;;;;;;;;;;;5054446;28;20023;-20
2022/03/06 00:14:50;;;;;;;;;;;;;;;;;;5054629;28;19959;-21
2022/03/06 00:17:16;;;;;;;;;;;;;;;;;;5054466;28;19916;-21
2022/03/06 00:19:43;;;;;;;;;;;;;;;;;;5054517;28;19909;-22
2022/03/06 00:22:09;;;;;;;;;;;;;;;;;;5054345;28;19921;-20
2022/03/06 00:24:35;;;;;;;;;;;;;;;;;;5054775;28;19982;-21
2022/03/06 00:27:01;;;;;;;;;;;;;;;;;;5054346;28;20339;-21
2022/03/06 00:29:27;;;;;;;;;;;;;;;;;;5054728;28;19955;-22
2022/03/06 00:31:53;;;;;;;;;;;;;;;;;;5055897;28;20003;-23
2022/03/06 00:34:19;;;;;;;;;;;;;;;;;;5057984;28;20006;-21
2022/03/06 00:36:45;;;;;;;;;;;;;;;;;;5057934;28;19920;-21
2022/03/06 00:39:11;;;;;;;;;;;;;;;;;;5057879;28;20371;-21
2022/03/06 00:41:37;;;;;;;;;;;;;;;;;;5057843;28;19924;-21
2022/03/06 00:44:03;;;;;;;;;;;;;;;;;;5057732;28;19908;-21
2022/03/06 00:46:29;;;;;;;;;;;;;;;;;;5058240;28;19939;-22
2022/03/06 00:48:55;;;;;;;;;;;;;;;;;;5058008;28;20007;-21
2022/03/06 00:51:21;;;;;;;;;;;;;;;;;;5057651;28;20302;-21
2022/03/06 00:53:47;;;;;;;;;;;;;;;;;;5057587;28;19913;-21
2022/03/06 00:56:13;;;;;;;;;;;;;;;;;;5057548;28;20027;-20
2022/03/06 00:58:39;;;;;;;;;;;;;;;;;;5057796;28;19909;-21
2022/03/06 01:01:05;;;;;;;;;;;;;;;;;;5057713;28;19960;-21
2022/03/06 01:03:31;;;;;;;;;;;;;;;;;;5056674;28;19952;-21
2022/03/06 01:05:57;;;;;;;;;;;;;;;;;;5057187;28;19912;-21
2022/03/06 01:08:23;;;;;;;;;;;;;;;;;;5057577;28;19968;-21
2022/03/06 01:10:49;;;;;;;;;;;;;;;;;;5057340;28;19924;-21
2022/03/06 01:13:15;;;;;;;;;;;;;;;;;;5056275;28;19973;-21
2022/03/06 01:15:41;;;;;;;;;;;;;;;;;;5057560;28;19913;-21
2022/03/06 01:18:07;;;;;;;;;;;;;;;;;;5057141;28;20425;-22
2022/03/06 01:20:33;;;;;;;;;;;;;;;;;;5057760;28;20050;-23
2022/03/06 01:22:59;;;;;;;;;;;;;;;;;;5056995;28;19952;-21
2022/03/06 01:25:25;;;;;;;;;;;;;;;;;;5057059;28;20321;-21
2022/03/06 01:27:50;;;;;;;;;;;;;;;;;;5057186;28;20298;-21
2022/03/06 01:30:19;;;;;;;;;;;;;;;;;;5057248;28;19909;-21
2022/03/06 01:32:45;;;;;;;;;;;;;;;;;;5056884;28;19913;-21
2022/03/06 01:35:11;;;;;;;;;;;;;;;;;;5057428;28;19936;-21
2022/03/06 01:37:37;;;;;;;;;;;;;;;;;;5056827;28;19916;-22
2022/03/06 01:40:03;;;;;;;;;;;;;;;;;;5055803;28;19913;-21
2022/03/06 01:42:29;;;;;;;;;;;;;;;;;;5056495;28;19916;-21
2022/03/06 01:44:55;;;;;;;;;;;;;;;;;;5056968;28;20255;-27
2022/03/06 01:47:21;;;;;;;;;;;;;;;;;;5056577;28;19917;-21
2022/03/06 01:49:47;;;;;;;;;;;;;;;;;;5057137;28;19913;-21
2022/03/06 01:52:13;;;;;;;;;;;;;;;;;;5056467;28;19966;-21
2022/03/06 01:54:39;;;;;;;;;;;;;;;;;;5057056;28;19997;-21
2022/03/06 01:57:05;;;;;;;;;;;;;;;;;;5056465;28;20307;-21
2022/03/06 01:59:31;;;;;;;;;;;;;;;;;;5056425;28;20370;-21
2022/03/06 02:01:57;;;;;;;;;;;;;;;;;;5056256;28;19908;-21
2022/03/06 02:04:23;;;;;;;;;;;;;;;;;;5056571;28;19913;-20
2022/03/06 02:06:49;;;;;;;;;;;;;;;;;;5055975;28;20007;-21
2022/03/06 02:09:15;;;;;;;;;;;;;;;;;;5056260;28;19993;-21
2022/03/06 02:11:41;;;;;;;;;;;;;;;;;;5056178;28;20308;-21
2022/03/06 02:14:07;;;;;;;;;;;;;;;;;;5056053;28;19913;-21
2022/03/06 02:16:33;;;;;;;;;;;;;;;;;;5056625;28;19912;-21
2022/03/06 02:18:59;;;;;;;;;;;;;;;;;;5055124;28;19974;-20
2022/03/06 02:21:25;;;;;;;;;;;;;;;;;;5056517;28;19913;-21
2022/03/06 02:23:51;;;;;;;;;;;;;;;;;;5056144;28;20246;-21
2022/03/06 02:26:17;;;;;;;;;;;;;;;;;;5055802;28;19924;-21
2022/03/06 02:28:44;;;;;;;;;;;;;;;;;;5055927;28;20324;-22
2022/03/06 02:31:10;;;;;;;;;;;;;;;;;;5056365;28;19916;-23
2022/03/06 02:33:36;;;;;;;;;;;;;;;;;;5055660;28;20366;-21
2022/03/06 02:36:02;;;;;;;;;;;;;;;;;;5055729;28;19913;-21
2022/03/06 02:38:28;;;;;;;;;;;;;;;;;;5055657;28;19916;-21
2022/03/06 02:40:54;;;;;;;;;;;;;;;;;;5054677;28;19912;-22
2022/03/06 02:43:20;;;;;;;;;;;;;;;;;;5054600;28;20259;-22
2022/03/06 02:45:46;;;;;;;;;;;;;;;;;;5055609;28;19920;-21
2022/03/06 02:48:12;;;;;;;;;;;;;;;;;;5055441;28;19917;-21
2022/03/06 02:50:38;;;;;;;;;;;;;;;;;;5056000;28;19917;-20
2022/03/06 02:53:04;;;;;;;;;;;;;;;;;;5055918;28;19990;-21
2022/03/06 02:55:30;;;;;;;;;;;;;;;;;;5054928;28;19913;-21
2022/03/06 02:57:56;;;;;;;;;;;;;;;;;;5054409;28;19913;-21
2022/03/06 03:00:22;;;;;;;;;;;;;;;;;;5054341;28;19912;-21
2022/03/06 03:02:48;;;;;;;;;;;;;;;;;;5055495;28;19948;-22
2022/03/06 03:05:14;;;;;;;;;;;;;;;;;;5055617;28;19917;-21
2022/03/06 03:07:40;;;;;;;;;;;;;;;;;;5055036;28;19921;-20
2022/03/06 03:10:06;;;;;;;;;;;;;;;;;;5055241;28;19909;-21
2022/03/06 03:12:32;;;;;;;;;;;;;;;;;;5055375;28;20225;-22
2022/03/06 03:15:00;;;;;;;;;;;;;;;;;;5055395;28;19920;-21
2022/03/06 03:17:26;;;;;;;;;;;;;;;;;;5055141;28;20318;-21
2022/03/06 03:19:52;;;;;;;;;;;;;;;;;;5054183;28;19912;-21
2022/03/06 03:22:18;;;;;;;;;;;;;;;;;;5055276;28;20350;-21
2022/03/06 03:24:44;;;;;;;;;;;;;;;;;;5054110;28;19948;-21
2022/03/06 03:27:10;;;;;;;;;;;;;;;;;;5054929;28;20023;-20
2022/03/06 03:29:35;;;;;;;;;;;;;;;;;;5054968;28;19913;-21
2022/03/06 03:32:01;;;;;;;;;;;;;;;;;;5055384;28;20354;-21
2022/03/06 03:34:28;;;;;;;;;;;;;;;;;;5055201;28;20023;-21
2022/03/06 03:36:54;;;;;;;;;;;;;;;;;;5054959;28;19912;-20
2022/03/06 03:39:20;;;;;;;;;;;;;;;;;;5054900;28;19909;-22
2022/03/06 03:41:46;;;;;;;;;;;;;;;;;;5054855;28;19920;-21
2022/03/06 03:44:11;;;;;;;;;;;;;;;;;;5054827;28;20244;-21
2022/03/06 03:46:37;;;;;;;;;;;;;;;;;;5054731;28;19932;-21
2022/03/06 03:49:03;;;;;;;;;;;;;;;;;;5054792;28;20081;-21
2022/03/06 03:51:29;;;;;;;;;;;;;;;;;;5055030;28;19913;-22
2022/03/06 03:53:55;;;;;;;;;;;;;;;;;;5054997;28;19917;-21
2022/03/06 03:56:21;;;;;;;;;;;;;;;;;;5054746;28;20312;-21
2022/03/06 03:58:47;;;;;;;;;;;;;;;;;;5054993;28;19909;-21
2022/03/06 04:01:13;;;;;;;;;;;;;;;;;;5054694;28;19913;-21
2022/03/06 04:03:39;;;;;;;;;;;;;;;;;;5055158;28;20367;-20
2022/03/06 04:06:05;;;;;;;;;;;;;;;;;;5056498;28;19974;-21
2022/03/06 04:08:31;;;;;;;;;;;;;;;;;;5058762;28;19940;-21
2022/03/06 04:10:59;;;;;;;;;;;;;;;;;;5058437;28;19913;-20
2022/03/06 04:13:25;;;;;;;;;;;;;;;;;;5058364;28;19916;-21
2022/03/06 04:15:51;;;;;;;;;;;;;;;;;;5058890;28;19919;-21
2022/03/06 04:18:17;;;;;;;;;;;;;;;;;;5057354;28;20011;-21
2022/03/06 04:20:43;;;;;;;;;;;;;;;;;;5058899;28;19920;-21
2022/03/06 04:23:09;;;;;;;;;;;;;;;;;;5058198;28;19913;-21
2022/03/06 04:25:35;;;;;;;;;;;;;;;;;;5057198;28;19924;-21
2022/03/06 04:28:01;;;;;;;;;;;;;;;;;;5058625;28;19963;-21
2022/03/06 04:30:27;;;;;;;;;;;;;;;;;;5058387;28;19913;-20
2022/03/06 04:32:53;;;;;;;;;;;;;;;;;;5057972;28;19934;-20
2022/03/06 04:35:19;;;;;;;;;;;;;;;;;;5058020;28;20264;-22
2022/03/06 04:37:45;;;;;;;;;;;;;;;;;;5058495;28;19909;-20
2022/03/06 04:40:11;;;;;;;;;;;;;;;;;;5057961;28;19924;-21
2022/03/06 04:42:37;;;;;;;;;;;;;;;;;;5058385;28;19966;-20
2022/03/06 04:45:03;;;;;;;;;;;;;;;;;;5057866;28;20003;-20
2022/03/06 04:47:29;;;;;;;;;;;;;;;;;;5056724;28;19916;-21
2022/03/06 04:49:55;;;;;;;;;;;;;;;;;;5057994;28;19908;-21
2022/03/06 04:52:21;;;;;;;;;;;;;;;;;;5057942;28;20335;-21
2022/03/06 04:54:47;;;;;;;;;;;;;;;;;;5057659;28;19919;-22
2022/03/06 04:57:14;;;;;;;;;;;;;;;;;;5057882;28;19923;-20
2022/03/06 04:59:40;;;;;;;;;;;;;;;;;;5057540;28;19920;-21
2022/03/06 05:02:06;;;;;;;;;;;;;;;;;;5056503;28;19909;-20
2022/03/06 05:04:32;;;;;;;;;;;;;;;;;;5057744;28;20217;-20
2022/03/06 05:06:58;;;;;;;;;;;;;;;;;;5057183;28;19974;-21
2022/03/06 05:09:24;;;;;;;;;;;;;;;;;;5057388;28;20406;-21
2022/03/06 05:11:50;;;;;;;;;;;;;;;;;;5057255;28;19959;-21
2022/03/06 05:14:16;;;;;;;;;;;;;;;;;;5057374;28;19952;-21
2022/03/06 05:16:42;;;;;;;;;;;;;;;;;;5056631;28;20003;-21
2022/03/06 05:19:09;;;;;;;;;;;;;;;;;;5056406;28;19967;-21
2022/03/06 05:21:35;;;;;;;;;;;;;;;;;;5057708;28;20375;-22
2022/03/06 05:24:01;;;;;;;;;;;;;;;;;;5057076;28;19944;-21
2022/03/06 05:26:27;;;;;;;;;;;;;;;;;;5056050;28;20307;-21
2022/03/06 05:28:53;;;;;;;;;;;;;;;;;;5057288;28;19920;-21
2022/03/06 05:31:19;;;;;;;;;;;;;;;;;;5056947;28;20054;-21
2022/03/06 05:33:45;;;;;;;;;;;;;;;;;;5055944;28;19917;-21
2022/03/06 05:36:11;;;;;;;;;;;;;;;;;;5056865;28;20256;-21
2022/03/06 05:38:37;;;;;;;;;;;;;;;;;;5056821;28;20335;-20
2022/03/06 05:41:03;;;;;;;;;;;;;;;;;;5057329;28;19912;-21
2022/03/06 05:43:28;;;;;;;;;;;;;;;;;;5056677;28;19909;-21
2022/03/06 05:45:55;;;;;;;;;;;;;;;;;;5057263;28;19999;-21
2022/03/06 05:48:20;;;;;;;;;;;;;;;;;;5056452;28;19917;-21
2022/03/06 05:50:47;;;;;;;;;;;;;;;;;;5056641;28;19916;-21
2022/03/06 05:53:13;;;;;;;;;;;;;;;;;;5055589;28;19913;-21
2022/03/06 05:55:39;;;;;;;;;;;;;;;;;;5057040;28;19917;-21
2022/03/06 05:58:04;;;;;;;;;;;;;;;;;;5056704;28;19968;-22
2022/03/06 06:00:30;;;;;;;;;;;;;;;;;;5056415;28;19913;-21
2022/03/06 06:02:56;;;;;;;;;;;;;;;;;;5056562;28;19909;-21
2022/03/06 06:05:23;;;;;;;;;;;;;;;;;;5056279;28;19913;-21
2022/03/06 06:07:49;;;;;;;;;;;;;;;;;;5056011;28;19920;-21
2022/03/06 06:10:15;;;;;;;;;;;;;;;;;;5056212;28;19944;-22
2022/03/06 06:12:41;;;;;;;;;;;;;;;;;;5056116;28;19962;-23
2022/03/06 06:15:07;;;;;;;;;;;;;;;;;;5056693;28;19920;-21
2022/03/06 06:17:32;;;;;;;;;;;;;;;;;;5056049;28;19920;-22
2022/03/06 06:20:00;;;;;;;;;;;;;;;;;;5056586;28;20328;-21
2022/03/06 06:22:26;;;;;;;;;;;;;;;;;;5055871;28;19913;-21
2022/03/06 06:24:52;;;;;;;;;;;;;;;;;;5055963;28;19955;-21
2022/03/06 06:27:18;;;;;;;;;;;;;;;;;;5056100;28;19952;-21
2022/03/06 06:29:45;;;;;;;;;;;;;;;;;;5056127;28;19935;-21
2022/03/06 06:32:11;;;;;;;;;;;;;;;;;;5055725;28;19996;-21
2022/03/06 06:34:37;;;;;;;;;;;;;;;;;;5056018;28;20297;-21
2022/03/06 06:37:03;;;;;;;;;;;;;;;;;;5055975;28;19996;-21
2022/03/06 06:39:29;;;;;;;;;;;;;;;;;;5055625;28;20336;-21
2022/03/06 06:41:55;;;;;;;;;;;;;;;;;;5055560;28;19923;-22
2022/03/06 06:44:21;;;;;;;;;;;;;;;;;;5055672;28;19966;-21
2022/03/06 06:46:47;;;;;;;;;;;;;;;;;;5055818;28;20247;-22
2022/03/06 06:49:13;;;;;;;;;;;;;;;;;;5055860;28;19909;-21
2022/03/06 06:51:39;;;;;;;;;;;;;;;;;;5055754;28;19912;-21
2022/03/06 06:54:05;;;;;;;;;;;;;;;;;;5055403;28;19963;-21
2022/03/06 06:56:31;;;;;;;;;;;;;;;;;;5055452;28;20325;-21
2022/03/06 06:58:57;;;;;;;;;;;;;;;;;;5055935;28;19912;-21
2022/03/06 07:01:22;;;;;;;;;;;;;;;;;;5055251;28;19917;-22
2022/03/06 07:03:48;;;;;;;;;;;;;;;;;;5055253;28;19908;-21
2022/03/06 07:06:14;;;;;;;;;;;;;;;;;;5055109;28;19916;-22
2022/03/06 07:08:41;;;;;;;;;;;;;;;;;;5055418;28;19920;-21
2022/03/06 07:11:06;;;;;;;;;;;;;;;;;;5055406;28;19913;-22
2022/03/06 07:13:33;;;;;;;;;;;;;;;;;;5055086;28;20241;-21
2022/03/06 07:15:58;;;;;;;;;;;;;;;;;;5055080;28;19913;-22
2022/03/06 07:18:24;;;;;;;;;;;;;;;;;;5055368;28;19925;-22
2022/03/06 07:20:50;;;;;;;;;;;;;;;;;;5055092;28;20295;-21
2022/03/06 07:23:16;;;;;;;;;;;;;;;;;;5055133;28;19982;-21
2022/03/06 07:25:42;;;;;;;;;;;;;;;;;;5055253;28;19913;-21
2022/03/06 07:28:08;;;;;;;;;;;;;;;;;;5054956;28;19912;-21
2022/03/06 07:30:34;;;;;;;;;;;;;;;;;;5055490;28;19924;-21
2022/03/06 07:33:01;;;;;;;;;;;;;;;;;;5054907;28;20275;-22
2022/03/06 07:35:27;;;;;;;;;;;;;;;;;;5054963;28;19920;-21
2022/03/06 07:37:53;;;;;;;;;;;;;;;;;;5055159;28;19962;-21
2022/03/06 07:40:19;;;;;;;;;;;;;;;;;;5054818;28;19913;-22
2022/03/06 07:42:45;;;;;;;;;;;;;;;;;;5058002;28;19913;-21
2022/03/06 07:45:11;;;;;;;;;;;;;;;;;;5059196;28;19920;-22
2022/03/06 07:47:37;;;;;;;;;;;;;;;;;;5059382;28;20384;-21
2022/03/06 07:50:03;;;;;;;;;;;;;;;;;;5058885;28;20003;-21
2022/03/06 07:52:29;;;;;;;;;;;;;;;;;;5059174;28;20374;-21
2022/03/06 07:54:55;;;;;;;;;;;;;;;;;;5059310;28;19912;-22
2022/03/06 07:57:21;;;;;;;;;;;;;;;;;;5058703;28;19924;-21
2022/03/06 07:59:47;;;;;;;;;;;;;;;;;;5058962;28;20339;-22
2022/03/06 08:02:13;;;;;;;;;;;;;;;;;;5058628;28;19920;-21
2022/03/06 08:04:39;;;;;;;;;;;;;;;;;;5058878;28;20304;-21
2022/03/06 08:07:05;;;;;;;;;;;;;;;;;;5058273;28;19924;-22
2022/03/06 08:09:31;;;;;;;;;;;;;;;;;;5059093;28;19960;-22
2022/03/06 08:11:57;;;;;;;;;;;;;;;;;;5058397;28;19982;-21
2022/03/06 08:14:23;;;;;;;;;;;;;;;;;;5058398;28;19971;-22
2022/03/06 08:16:49;;;;;;;;;;;;;;;;;;5058381;28;19913;-21
2022/03/06 08:19:16;;;;;;;;;;;;;;;;;;5058370;28;20332;-22
2022/03/06 08:21:42;;;;;;;;;;;;;;;;;;5058538;28;19924;-21
2022/03/06 08:24:08;;;;;;;;;;;;;;;;;;5058178;28;19909;-21
2022/03/06 08:26:34;;;;;;;;;;;;;;;;;;5058407;28;19916;-21
2022/03/06 08:29:00;;;;;;;;;;;;;;;;;;5057247;28;20311;-22
2022/03/06 08:31:27;;;;;;;;;;;;;;;;;;5058404;28;19944;-21
2022/03/06 08:33:53;;;;;;;;;;;;;;;;;;5058112;28;19913;-21
2022/03/06 08:36:19;;;;;;;;;;;;;;;;;;5058018;28;19913;-21
2022/03/06 08:38:45;;;;;;;;;;;;;;;;;;5058603;28;20224;-21
2022/03/06 08:41:11;;;;;;;;;;;;;;;;;;5058200;28;20370;-21
2022/03/06 08:43:37;;;;;;;;;;;;;;;;;;5057846;28;20011;-22
2022/03/06 08:46:03;;;;;;;;;;;;;;;;;;5058359;28;19978;-22
2022/03/06 08:48:29;;;;;;;;;;;;;;;;;;5057786;28;20267;-21
2022/03/06 08:50:55;;;;;;;;;;;;;;;;;;5056821;28;20324;-21
2022/03/06 08:53:21;;;;;;;;;;;;;;;;;;5056434;28;19909;-21
2022/03/06 08:55:47;;;;;;;;;;;;;;;;;;5057891;28;19913;-21
2022/03/06 08:58:13;;;;;;;;;;;;;;;;;;5057625;28;20224;-21
2022/03/06 09:00:39;;;;;;;;;;;;;;;;;;5057545;28;19912;-22
2022/03/06 09:03:05;;;;;;;;;;;;;;;;;;5057469;28;19920;-21
2022/03/06 09:05:31;;;;;;;;;;;;;;;;;;5058070;28;19913;-21
2022/03/06 09:07:57;;;;;;;;;;;;;;;;;;5057130;28;20003;-22
2022/03/06 09:10:23;;;;;;;;;;;;;;;;;;5057915;28;20398;-22
2022/03/06 09:12:49;;;;;;;;;;;;;;;;;;5057257;28;19908;-21
2022/03/06 09:15:14;;;;;;;;;;;;;;;;;;5057436;28;19929;-22
2022/03/06 09:17:40;;;;;;;;;;;;;;;;;;5057780;28;20224;-22
2022/03/06 09:20:06;;;;;;;;;;;;;;;;;;5057212;28;20354;-21
2022/03/06 09:22:32;;;;;;;;;;;;;;;;;;5057088;28;19933;-22
2022/03/06 09:24:58;;;;;;;;;;;;;;;;;;5057131;28;19915;-21
2022/03/06 09:27:24;;;;;;;;;;;;;;;;;;5057235;28;20328;-22
2022/03/06 09:29:50;;;;;;;;;;;;;;;;;;5057017;28;19994;-21
2022/03/06 09:32:16;;;;;;;;;;;;;;;;;;5056901;28;19913;-21
2022/03/06 09:34:45;;;;;;;;;;;;;;;;;;5056968;28;20339;-21
2022/03/06 09:37:11;;;;;;;;;;;;;;;;;;5056880;28;20312;-21
2022/03/06 09:39:37;;;;;;;;;;;;;;;;;;5057174;28;20010;-23
2022/03/06 09:42:03;;;;;;;;;;;;;;;;;;5056963;28;19935;-24
2022/03/06 09:44:31;;;;;;;;;;;;;;;;;;5057336;28;19996;-21
2022/03/06 09:46:58;;;;;;;;;;;;;;;;;;5056876;28;20044;-21
2022/03/06 09:49:24;;;;;;;;;;;;;;;;;;5056767;28;19909;-22
2022/03/06 09:51:50;;;;;;;;;;;;;;;;;;5056540;28;19913;-22
2022/03/06 09:54:19;;;;;;;;;;;;;;;;;;5056824;28;19966;-26
2022/03/06 09:56:45;;;;;;;;;;;;;;;;;;5056737;28;19916;-22
2022/03/06 09:59:11;;;;;;;;;;;;;;;;;;5056479;28;20355;-21
2022/03/06 10:01:36;;;;;;;;;;;;;;;;;;5056633;28;20352;-21
2022/03/06 10:04:02;;;;;;;;;;;;;;;;;;5055040;28;19909;-21
2022/03/06 10:06:28;;;;;;;;;;;;;;;;;;5056265;28;20002;-20
2022/03/06 10:08:54;;;;;;;;;;;;;;;;;;5056217;28;20367;-22
2022/03/06 10:11:21;;;;;;;;;;;;;;;;;;5055230;28;19928;-21
2022/03/06 10:13:47;;;;;;;;;;;;;;;;;;5056152;28;19913;-21
2022/03/06 10:16:13;;;;;;;;;;;;;;;;;;5056071;28;19913;-21
2022/03/06 10:18:39;;;;;;;;;;;;;;;;;;5056077;28;19919;-21
2022/03/06 10:21:05;;;;;;;;;;;;;;;;;;5056064;28;20011;-23
2022/03/06 10:23:31;;;;;;;;;;;;;;;;;;5055940;28;20289;-22
2022/03/06 10:25:57;;;;;;;;;;;;;;;;;;5056207;28;19962;-21
2022/03/06 10:28:23;;;;;;;;;;;;;;;;;;5056342;28;20323;-22
2022/03/06 10:30:49;;;;;;;;;;;;;;;;;;5055002;28;20322;-21
2022/03/06 10:33:15;;;;;;;;;;;;;;;;;;5056325;28;19952;-21
2022/03/06 10:35:41;;;;;;;;;;;;;;;;;;5055857;28;19909;-21
2022/03/06 10:38:07;;;;;;;;;;;;;;;;;;5055687;28;19912;-22
2022/03/06 10:40:33;;;;;;;;;;;;;;;;;;5055669;28;19948;-21
2022/03/06 10:42:59;;;;;;;;;;;;;;;;;;5054642;28;19908;-24
2022/03/06 10:45:25;;;;;;;;;;;;;;;;;;5055744;28;20000;-21
2022/03/06 10:47:52;;;;;;;;;;;;;;;;;;5055482;28;19916;-22
2022/03/06 10:50:18;;;;;;;;;;;;;;;;;;5055831;28;20353;-21
2022/03/06 10:52:44;;;;;;;;;;;;;;;;;;5054464;28;20001;-21
2022/03/06 10:55:10;;;;;;;;;;;;;;;;;;5055975;28;19956;-21
2022/03/06 10:57:36;;;;;;;;;;;;;;;;;;5055442;28;20029;-20
2022/03/06 11:00:02;;;;;;;;;;;;;;;;;;5055416;28;19913;-21
2022/03/06 11:02:28;;;;;;;;;;;;;;;;;;5055250;28;19951;-22
2022/03/06 11:04:57;;;;;;;;;;;;;;;;;;5055300;28;20439;-21
2022/03/06 11:07:23;;;;;;;;;;;;;;;;;;5055058;28;19943;-21
2022/03/06 11:09:49;;;;;;;;;;;;;;;;;;5055796;28;19912;-21
2022/03/06 11:12:15;;;;;;;;;;;;;;;;;;5055117;28;20063;-21
2022/03/06 11:14:41;;;;;;;;;;;;;;;;;;5055238;28;19923;-21
2022/03/06 11:17:07;;;;;;;;;;;;;;;;;;5054996;28;19999;-21
2022/03/06 11:19:34;;;;;;;;;;;;;;;;;;5055485;28;20389;-21
2022/03/06 11:21:59;;;;;;;;;;;;;;;;;;5055280;28;20007;-21
2022/03/06 11:24:28;;;;;;;;;;;;;;;;;;5055054;28;19944;-21
2022/03/06 11:26:54;;;;;;;;;;;;;;;;;;5055195;28;19991;-21
2022/03/06 11:29:22;;;;;;;;;;;;;;;;;;5054986;28;20274;-21
2022/03/06 11:31:48;;;;;;;;;;;;;;;;;;5054883;28;19912;-21
2022/03/06 11:34:14;;;;;;;;;;;;;;;;;;5054955;28;19920;-21
2022/03/06 11:36:40;;;;;;;;;;;;;;;;;;5054898;28;19932;-21
2022/03/06 11:39:06;;;;;;;;;;;;;;;;;;5054929;28;20107;-21
2022/03/06 11:41:32;;;;;;;;;;;;;;;;;;5054886;28;19912;-22
2022/03/06 11:43:58;;;;;;;;;;;;;;;;;;5054808;28;19909;-21
2022/03/06 11:46:24;;;;;;;;;;;;;;;;;;5054856;28;19924;-20
2022/03/06 11:48:50;;;;;;;;;;;;;;;;;;5054766;28;19924;-21
2022/03/06 11:51:22;;;;;;;;;;;;;;;;;;5053880;28;19921;-21
2022/03/06 11:53:48;;;;;;;;;;;;;;;;;;5054872;28;19912;-22
2022/03/06 11:56:14;;;;;;;;;;;;;;;;;;5054825;28;19970;-21
2022/03/06 11:58:41;;;;;;;;;;;;;;;;;;5054770;28;19913;-21
2022/03/06 12:01:07;;;;;;;;;;;;;;;;;;5055248;28;19912;-21
2022/03/06 12:03:33;;;;;;;;;;;;;;;;;;5054900;28;20299;-21
2022/03/06 12:05:59;;;;;;;;;;;;;;;;;;5054476;28;19909;-21
2022/03/06 12:08:25;;;;;;;;;;;;;;;;;;5055109;28;19912;-22
2022/03/06 12:10:52;;;;;;;;;;;;;;;;;;5054568;28;19912;-21
2022/03/06 12:13:18;;;;;;;;;;;;;;;;;;5054426;28;19908;-21
2022/03/06 12:15:45;;;;;;;;;;;;;;;;;;5054593;28;19928;-21
2022/03/06 12:18:11;;;;;;;;;;;;;;;;;;5054813;28;20234;-20
2022/03/06 12:20:37;;;;;;;;;;;;;;;;;;5054572;28;19915;-20
2022/03/06 12:23:04;;;;;;;;;;;;;;;;;;5055016;28;19955;-22
2022/03/06 12:25:31;;;;;;;;;;;;;;;;;;5054461;28;19909;-21
2022/03/06 12:27:57;;;;;;;;;;;;;;;;;;5057988;28;19948;-22
2022/03/06 12:30:23;;;;;;;;;;;;;;;;;;5058172;28;19940;-20
2022/03/06 12:32:49;;;;;;;;;;;;;;;;;;5058603;28;19913;-21
2022/03/06 12:35:15;;;;;;;;;;;;;;;;;;5058115;28;20247;-21
2022/03/06 12:37:41;;;;;;;;;;;;;;;;;;5058024;28;19924;-22
2022/03/06 12:40:07;;;;;;;;;;;;;;;;;;5058034;28;19935;-21
2022/03/06 12:42:33;;;;;;;;;;;;;;;;;;5058131;28;20332;-21
2022/03/06 12:44:59;;;;;;;;;;;;;;;;;;5057891;28;19996;-21
2022/03/06 12:47:29;;;;;;;;;;;;;;;;;;5057779;28;20015;-21
2022/03/06 12:49:56;;;;;;;;;;;;;;;;;;5057828;28;20342;-21
2022/03/06 12:52:22;;;;;;;;;;;;;;;;;;5057974;28;19913;-22
2022/03/06 12:54:48;;;;;;;;;;;;;;;;;;5057751;28;19966;-22
2022/03/06 12:57:14;;;;;;;;;;;;;;;;;;5057923;28;20328;-21
2022/03/06 12:59:43;;;;;;;;;;;;;;;;;;5057583;28;20004;-20
2022/03/06 13:02:09;;;;;;;;;;;;;;;;;;5057793;28;19909;-22
2022/03/06 13:04:35;;;;;;;;;;;;;;;;;;5057539;28;19924;-21
2022/03/06 13:07:01;;;;;;;;;;;;;;;;;;5057221;28;19960;-21
2022/03/06 13:09:27;;;;;;;;;;;;;;;;;;5057706;28;20013;-21
2022/03/06 13:11:53;;;;;;;;;;;;;;;;;;5057257;28;19913;-21
2022/03/06 13:14:19;;;;;;;;;;;;;;;;;;5057378;28;19909;-21
2022/03/06 13:16:45;;;;;;;;;;;;;;;;;;5057873;28;19920;-21
2022/03/06 13:19:11;;;;;;;;;;;;;;;;;;5057853;28;19920;-22
2022/03/06 13:21:37;;;;;;;;;;;;;;;;;;5057433;28;19936;-22
2022/03/06 13:24:03;;;;;;;;;;;;;;;;;;5057681;28;19913;-21
2022/03/06 13:26:29;;;;;;;;;;;;;;;;;;5057380;28;20288;-21
2022/03/06 13:28:55;;;;;;;;;;;;;;;;;;5057301;28;20011;-21
2022/03/06 13:31:21;;;;;;;;;;;;;;;;;;5057051;28;19944;-20
2022/03/06 13:33:47;;;;;;;;;;;;;;;;;;5056935;28;19923;-21
2022/03/06 13:36:13;;;;;;;;;;;;;;;;;;5057171;28;20339;-21
2022/03/06 13:38:39;;;;;;;;;;;;;;;;;;5056241;28;19920;-21
2022/03/06 13:41:05;;;;;;;;;;;;;;;;;;5057400;28;19912;-23
2022/03/06 13:43:31;;;;;;;;;;;;;;;;;;5056746;28;19909;-22
2022/03/06 13:45:57;;;;;;;;;;;;;;;;;;5056790;28;19913;-24
2022/03/06 13:48:23;;;;;;;;;;;;;;;;;;5056900;28;20302;-23
2022/03/06 13:50:50;;;;;;;;;;;;;;;;;;5056688;28;19909;-22
2022/03/06 13:53:16;;;;;;;;;;;;;;;;;;5056509;28;19925;-23
2022/03/06 13:55:42;;;;;;;;;;;;;;;;;;5056812;28;20247;-22
2022/03/06 13:58:08;;;;;;;;;;;;;;;;;;5057078;28;19909;-22
2022/03/06 14:00:34;;;;;;;;;;;;;;;;;;5056458;28;19928;-23
2022/03/06 14:03:00;;;;;;;;;;;;;;;;;;5056365;28;20344;-23
2022/03/06 14:05:26;;;;;;;;;;;;;;;;;;5056312;28;19923;-22
2022/03/06 14:07:52;;;;;;;;;;;;;;;;;;5056111;28;19920;-22
2022/03/06 14:10:18;;;;;;;;;;;;;;;;;;5056597;28;20318;-22
2022/03/06 14:12:44;;;;;;;;;;;;;;;;;;5056521;28;20013;-22
2022/03/06 14:15:10;;;;;;;;;;;;;;;;;;5056198;28;20267;-23
2022/03/06 14:17:36;;;;;;;;;;;;;;;;;;5056410;28;19908;-22
2022/03/06 14:20:03;;;;;;;;;;;;;;;;;;5056162;28;19964;-24
2022/03/06 14:22:28;;;;;;;;;;;;;;;;;;5055053;28;20351;-28
2022/03/06 14:24:54;;;;;;;;;;;;;;;;;;5056025;28;19920;-22
2022/03/06 14:27:20;;;;;;;;;;;;;;;;;;5056421;28;19928;-23
2022/03/06 14:29:47;;;;;;;;;;;;;;;;;;5055903;28;19948;-26
2022/03/06 14:32:13;;;;;;;;;;;;;;;;;;5055847;28;19966;-22
2022/03/06 14:34:39;;;;;;;;;;;;;;;;;;5055778;28;20344;-20
2022/03/06 14:37:05;;;;;;;;;;;;;;;;;;5055738;28;19917;-21
2022/03/06 14:39:31;;;;;;;;;;;;;;;;;;5054769;28;19974;-21
2022/03/06 14:41:57;;;;;;;;;;;;;;;;;;5055685;28;20344;-20
2022/03/06 14:44:23;;;;;;;;;;;;;;;;;;5055925;28;19942;-21
2022/03/06 14:46:49;;;;;;;;;;;;;;;;;;5055764;28;19913;-23
2022/03/06 14:49:15;;;;;;;;;;;;;;;;;;5055823;28;20323;-21
2022/03/06 14:51:41;;;;;;;;;;;;;;;;;;5054972;28;19924;-21
2022/03/06 14:54:07;;;;;;;;;;;;;;;;;;5055453;28;19920;-21
2022/03/06 14:56:33;;;;;;;;;;;;;;;;;;5055756;28;20015;-21
2022/03/06 14:58:59;;;;;;;;;;;;;;;;;;5056181;28;19913;-21
2022/03/06 15:01:25;;;;;;;;;;;;;;;;;;5055694;28;19923;-23
2022/03/06 15:03:51;;;;;;;;;;;;;;;;;;5055259;28;20251;-22
2022/03/06 15:06:17;;;;;;;;;;;;;;;;;;5055126;28;19929;-23
2022/03/06 15:08:43;;;;;;;;;;;;;;;;;;5055202;28;19917;-21
2022/03/06 15:11:09;;;;;;;;;;;;;;;;;;5055771;28;19952;-21
2022/03/06 15:13:35;;;;;;;;;;;;;;;;;;5055161;28;19909;-21
2022/03/06 15:16:01;;;;;;;;;;;;;;;;;;5055192;28;20007;-21
2022/03/06 15:18:27;;;;;;;;;;;;;;;;;;5055721;28;19967;-21
2022/03/06 15:20:53;;;;;;;;;;;;;;;;;;5055099;28;19913;-21
2022/03/06 15:23:19;;;;;;;;;;;;;;;;;;5055457;28;19908;-21
2022/03/06 15:25:45;;;;;;;;;;;;;;;;;;5055016;28;20356;-24
2022/03/06 15:28:13;;;;;;;;;;;;;;;;;;5054045;28;20006;-21
2022/03/06 15:30:39;;;;;;;;;;;;;;;;;;5055591;28;19913;-21
2022/03/06 15:33:05;;;;;;;;;;;;;;;;;;5054913;28;20062;-22
2022/03/06 15:35:31;;;;;;;;;;;;;;;;;;5054006;28;19927;-21
2022/03/06 15:37:57;;;;;;;;;;;;;;;;;;5055479;28;20399;-22
2022/03/06 15:40:23;;;;;;;;;;;;;;;;;;5054910;28;19923;-21
2022/03/06 15:42:49;;;;;;;;;;;;;;;;;;5055123;28;19913;-21
2022/03/06 15:45:15;;;;;;;;;;;;;;;;;;5055204;28;19979;-21
2022/03/06 15:47:41;;;;;;;;;;;;;;;;;;5054691;28;19916;-21
2022/03/06 15:50:07;;;;;;;;;;;;;;;;;;5054815;28;19963;-21
2022/03/06 15:52:33;;;;;;;;;;;;;;;;;;5054764;28;19944;-21
2022/03/06 15:54:59;;;;;;;;;;;;;;;;;;5054787;28;20351;-22
2022/03/06 15:57:25;;;;;;;;;;;;;;;;;;5054973;28;19924;-21
2022/03/06 15:59:51;;;;;;;;;;;;;;;;;;5054779;28;20248;-21
2022/03/06 16:02:17;;;;;;;;;;;;;;;;;;5057011;28;19913;-23
2022/03/06 16:04:43;;;;;;;;;;;;;;;;;;5058728;28;19916;-22
2022/03/06 16:07:09;;;;;;;;;;;;;;;;;;5058596;28;19924;-21
2022/03/06 16:09:35;;;;;;;;;;;;;;;;;;5059165;28;20344;-21
2022/03/06 16:12:01;;;;;;;;;;;;;;;;;;5059058;28;19917;-22
2022/03/06 16:14:27;;;;;;;;;;;;;;;;;;5058519;28;20352;-21
2022/03/06 16:16:53;;;;;;;;;;;;;;;;;;5058446;28;20343;-22
2022/03/06 16:19:22;;;;;;;;;;;;;;;;;;5058402;28;19909;-21
2022/03/06 16:21:48;;;;;;;;;;;;;;;;;;5058367;28;19920;-21
2022/03/06 16:24:14;;;;;;;;;;;;;;;;;;5058902;28;19991;-21
2022/03/06 16:26:40;;;;;;;;;;;;;;;;;;5058165;28;19912;-21
2022/03/06 16:29:06;;;;;;;;;;;;;;;;;;5058723;28;19913;-22
2022/03/06 16:31:33;;;;;;;;;;;;;;;;;;5058164;28;20265;-22
2022/03/06 16:33:59;;;;;;;;;;;;;;;;;;5058163;28;19909;-21
2022/03/06 16:36:28;;;;;;;;;;;;;;;;;;5058076;28;19913;-22